Kedron, Arkansas
Current Conditions -  °F | °C
As of 4:25 AM on Sunday 21 Dec 2014 (Local Time) from KPBF Reporting Station
Haze Haze  
Wind Chill: 32°   Ceiling: Unl
Heat Index: 32°   Visibility: 3mi
Dew Point: 29°   Wind: 3mph
Humidity: 88%   Direction: 40°NE
Pressure: 30.18"   Gusts: NA
Location:  33.947°N, 92.1633°W
Report Text: KPBF 211025Z AUTO 04003KT 3SM BR CLR 00/M02 A3018 RMK AO2 T00001017
Loading
Personal Weather Stations






























Interactive Weather Map New forecast layout! Learn more

10-Day Weather Forecast

Advertisements
Track Severe Weather on mobile